sensor_id;sensor_type;location;lat;lon;timestamp;P1;durP1;ratioP1;P2;durP2;ratioP2
179;SDS011;78;48.788;9.010;2023-05-14T00:01:08;27.63;;;11.90;;
179;SDS011;78;48.788;9.010;2023-05-14T00:03:34;28.70;;;11.70;;
179;SDS011;78;48.788;9.010;2023-05-14T00:06:01;28.60;;;11.63;;
179;SDS011;78;48.788;9.010;2023-05-14T00:08:27;28.87;;;10.97;;
179;SDS011;78;48.788;9.010;2023-05-14T00:10:53;27.77;;;11.50;;
179;SDS011;78;48.788;9.010;2023-05-14T00:13:20;27.50;;;11.57;;
179;SDS011;78;48.788;9.010;2023-05-14T00:15:46;27.87;;;10.50;;
179;SDS011;78;48.788;9.010;2023-05-14T00:18:12;28.43;;;11.40;;
179;SDS011;78;48.788;9.010;2023-05-14T00:20:39;28.30;;;11.40;;
179;SDS011;78;48.788;9.010;2023-05-14T00:23:05;29.60;;;12.33;;
179;SDS011;78;48.788;9.010;2023-05-14T00:25:32;26.30;;;10.53;;
179;SDS011;78;48.788;9.010;2023-05-14T00:27:57;29.17;;;11.57;;
179;SDS011;78;48.788;9.010;2023-05-14T00:30:24;29.40;;;12.30;;
179;SDS011;78;48.788;9.010;2023-05-14T00:32:50;32.97;;;13.70;;
179;SDS011;78;48.788;9.010;2023-05-14T00:35:18;35.13;;;15.73;;
179;SDS011;78;48.788;9.010;2023-05-14T00:37:45;30.10;;;13.50;;
179;SDS011;78;48.788;9.010;2023-05-14T00:40:11;35.50;;;14.43;;
179;SDS011;78;48.788;9.010;2023-05-14T00:42:41;32.40;;;14.40;;
179;SDS011;78;48.788;9.010;2023-05-14T00:45:07;30.40;;;12.97;;
179;SDS011;78;48.788;9.010;2023-05-14T00:47:33;30.97;;;13.93;;
179;SDS011;78;48.788;9.010;2023-05-14T00:50:01;30.50;;;13.50;;
179;SDS011;78;48.788;9.010;2023-05-14T00:52:28;30.27;;;14.10;;
179;SDS011;78;48.788;9.010;2023-05-14T00:54:54;30.93;;;13.80;;
179;SDS011;78;48.788;9.010;2023-05-14T00:57:21;31.13;;;13.57;;
179;SDS011;78;48.788;9.010;2023-05-14T00:59:47;31.80;;;13.10;;
179;SDS011;78;48.788;9.010;2023-05-14T01:02:14;33.47;;;12.83;;
179;SDS011;78;48.788;9.010;2023-05-14T01:04:40;29.87;;;12.37;;
179;SDS011;78;48.788;9.010;2023-05-14T01:15:40;33.70;;;14.43;;
179;SDS011;78;48.788;9.010;2023-05-14T01:18:08;29.63;;;13.30;;
179;SDS011;78;48.788;9.010;2023-05-14T01:20:35;27.40;;;12.40;;
179;SDS011;78;48.788;9.010;2023-05-14T01:23:01;29.07;;;12.87;;
179;SDS011;78;48.788;9.010;2023-05-14T01:25:29;27.40;;;12.30;;
179;SDS011;78;48.788;9.010;2023-05-14T01:30:25;32.60;;;13.13;;
179;SDS011;78;48.788;9.010;2023-05-14T01:32:53;30.77;;;13.17;;
179;SDS011;78;48.788;9.010;2023-05-14T01:35:27;27.73;;;11.83;;
179;SDS011;78;48.788;9.010;2023-05-14T01:37:54;30.20;;;12.77;;
179;SDS011;78;48.788;9.010;2023-05-14T01:40:21;29.27;;;12.47;;
179;SDS011;78;48.788;9.010;2023-05-14T01:42:48;30.10;;;12.97;;
179;SDS011;78;48.788;9.010;2023-05-14T01:45:15;30.33;;;12.13;;
179;SDS011;78;48.788;9.010;2023-05-14T01:47:41;27.27;;;12.23;;
179;SDS011;78;48.788;9.010;2023-05-14T01:50:08;26.80;;;11.50;;
179;SDS011;78;48.788;9.010;2023-05-14T01:52:34;27.60;;;12.57;;
179;SDS011;78;48.788;9.010;2023-05-14T01:55:00;27.90;;;11.60;;
179;SDS011;78;48.788;9.010;2023-05-14T01:57:26;27.97;;;11.33;;
179;SDS011;78;48.788;9.010;2023-05-14T01:59:52;29.97;;;13.30;;
179;SDS011;78;48.788;9.010;2023-05-14T02:02:18;36.07;;;13.53;;
179;SDS011;78;48.788;9.010;2023-05-14T02:04:44;35.43;;;16.50;;
179;SDS011;78;48.788;9.010;2023-05-14T02:07:10;33.43;;;15.37;;
179;SDS011;78;48.788;9.010;2023-05-14T02:09:36;30.97;;;14.30;;
179;SDS011;78;48.788;9.010;2023-05-14T02:12:02;35.03;;;15.87;;
179;SDS011;78;48.788;9.010;2023-05-14T02:14:28;35.33;;;15.70;;
179;SDS011;78;48.788;9.010;2023-05-14T02:16:54;34.63;;;16.20;;
179;SDS011;78;48.788;9.010;2023-05-14T02:19:20;31.77;;;15.40;;
179;SDS011;78;48.788;9.010;2023-05-14T02:21:47;31.00;;;14.60;;
179;SDS011;78;48.788;9.010;2023-05-14T02:24:13;33.03;;;15.27;;
179;SDS011;78;48.788;9.010;2023-05-14T02:26:39;36.37;;;17.20;;
179;SDS011;78;48.788;9.010;2023-05-14T02:29:05;35.63;;;16.40;;
179;SDS011;78;48.788;9.010;2023-05-14T02:31:31;33.17;;;14.70;;
179;SDS011;78;48.788;9.010;2023-05-14T02:33:57;31.20;;;14.80;;
179;SDS011;78;48.788;9.010;2023-05-14T02:36:23;34.63;;;14.13;;
179;SDS011;78;48.788;9.010;2023-05-14T02:38:48;32.20;;;15.33;;
179;SDS011;78;48.788;9.010;2023-05-14T02:41:15;32.00;;;14.67;;
179;SDS011;78;48.788;9.010;2023-05-14T02:43:40;31.63;;;14.77;;
179;SDS011;78;48.788;9.010;2023-05-14T02:46:06;30.40;;;14.00;;
179;SDS011;78;48.788;9.010;2023-05-14T02:48:32;31.27;;;14.40;;
179;SDS011;78;48.788;9.010;2023-05-14T02:51:00;29.43;;;13.80;;
179;SDS011;78;48.788;9.010;2023-05-14T02:53:26;31.13;;;14.27;;
179;SDS011;78;48.788;9.010;2023-05-14T02:55:52;33.27;;;15.67;;
179;SDS011;78;48.788;9.010;2023-05-14T02:58:18;29.60;;;14.00;;
179;SDS011;78;48.788;9.010;2023-05-14T03:00:44;29.63;;;13.80;;
179;SDS011;78;48.788;9.010;2023-05-14T03:03:10;31.30;;;15.17;;
179;SDS011;78;48.788;9.010;2023-05-14T03:05:36;32.83;;;15.13;;
179;SDS011;78;48.788;9.010;2023-05-14T03:08:02;33.10;;;15.40;;
179;SDS011;78;48.788;9.010;2023-05-14T03:10:29;33.60;;;15.90;;
179;SDS011;78;48.788;9.010;2023-05-14T03:12:56;32.23;;;15.07;;
179;SDS011;78;48.788;9.010;2023-05-14T03:15:22;30.67;;;14.80;;
179;SDS011;78;48.788;9.010;2023-05-14T03:17:48;35.90;;;15.43;;
179;SDS011;78;48.788;9.010;2023-05-14T03:20:14;32.70;;;16.13;;
179;SDS011;78;48.788;9.010;2023-05-14T03:22:40;33.23;;;15.57;;
179;SDS011;78;48.788;9.010;2023-05-14T03:25:08;32.13;;;14.43;;
179;SDS011;78;48.788;9.010;2023-05-14T03:27:34;30.70;;;14.70;;
179;SDS011;78;48.788;9.010;2023-05-14T03:30:00;30.00;;;14.30;;
179;SDS011;78;48.788;9.010;2023-05-14T03:32:26;34.00;;;15.60;;
179;SDS011;78;48.788;9.010;2023-05-14T03:34:52;32.77;;;15.63;;
179;SDS011;78;48.788;9.010;2023-05-14T03:37:18;32.93;;;15.03;;
179;SDS011;78;48.788;9.010;2023-05-14T03:39:44;28.63;;;13.73;;
179;SDS011;78;48.788;9.010;2023-05-14T03:42:10;33.03;;;15.27;;
179;SDS011;78;48.788;9.010;2023-05-14T03:44:36;30.50;;;14.27;;
179;SDS011;78;48.788;9.010;2023-05-14T03:47:02;34.20;;;15.40;;
179;SDS011;78;48.788;9.010;2023-05-14T03:49:28;30.87;;;14.07;;
179;SDS011;78;48.788;9.010;2023-05-14T03:51:54;36.30;;;14.57;;
179;SDS011;78;48.788;9.010;2023-05-14T03:54:21;29.70;;;14.17;;
179;SDS011;78;48.788;9.010;2023-05-14T03:56:47;32.10;;;14.80;;
179;SDS011;78;48.788;9.010;2023-05-14T03:59:14;33.43;;;13.87;;
179;SDS011;78;48.788;9.010;2023-05-14T04:01:40;31.07;;;13.90;;
179;SDS011;78;48.788;9.010;2023-05-14T04:04:06;29.13;;;13.80;;
179;SDS011;78;48.788;9.010;2023-05-14T04:06:32;31.70;;;14.43;;
179;SDS011;78;48.788;9.010;2023-05-14T04:08:58;31.67;;;14.93;;
179;SDS011;78;48.788;9.010;2023-05-14T04:11:24;30.37;;;14.23;;
179;SDS011;78;48.788;9.010;2023-05-14T04:13:50;29.50;;;14.20;;
179;SDS011;78;48.788;9.010;2023-05-14T04:16:16;31.83;;;14.60;;
179;SDS011;78;48.788;9.010;2023-05-14T04:18:42;28.37;;;12.57;;
179;SDS011;78;48.788;9.010;2023-05-14T04:21:08;30.10;;;14.40;;
179;SDS011;78;48.788;9.010;2023-05-14T04:23:34;28.43;;;13.57;;
179;SDS011;78;48.788;9.010;2023-05-14T04:26:00;29.30;;;14.17;;
179;SDS011;78;48.788;9.010;2023-05-14T04:28:26;32.03;;;14.43;;
179;SDS011;78;48.788;9.010;2023-05-14T04:30:52;36.23;;;15.90;;
179;SDS011;78;48.788;9.010;2023-05-14T04:33:18;30.60;;;14.37;;
179;SDS011;78;48.788;9.010;2023-05-14T04:35:44;32.90;;;15.50;;
179;SDS011;78;48.788;9.010;2023-05-14T04:38:10;31.50;;;14.47;;
179;SDS011;78;48.788;9.010;2023-05-14T04:40:38;32.60;;;13.93;;
179;SDS011;78;48.788;9.010;2023-05-14T04:43:04;33.00;;;15.20;;
179;SDS011;78;48.788;9.010;2023-05-14T04:45:30;34.27;;;15.20;;
179;SDS011;78;48.788;9.010;2023-05-14T04:47:56;32.40;;;13.70;;
179;SDS011;78;48.788;9.010;2023-05-14T04:50:22;38.93;;;14.90;;
179;SDS011;78;48.788;9.010;2023-05-14T04:52:48;30.13;;;13.57;;
179;SDS011;78;48.788;9.010;2023-05-14T04:55:14;34.50;;;14.63;;
179;SDS011;78;48.788;9.010;2023-05-14T04:57:40;33.20;;;14.80;;
179;SDS011;78;48.788;9.010;2023-05-14T05:00:06;31.77;;;13.03;;
179;SDS011;78;48.788;9.010;2023-05-14T05:02:34;31.53;;;13.67;;
179;SDS011;78;48.788;9.010;2023-05-14T05:05:00;29.83;;;13.97;;
179;SDS011;78;48.788;9.010;2023-05-14T05:07:26;32.37;;;13.97;;
179;SDS011;78;48.788;9.010;2023-05-14T05:09:52;30.33;;;13.63;;
179;SDS011;78;48.788;9.010;2023-05-14T05:12:18;30.70;;;13.77;;
179;SDS011;78;48.788;9.010;2023-05-14T05:14:45;28.97;;;12.97;;
179;SDS011;78;48.788;9.010;2023-05-14T05:17:11;32.00;;;14.30;;
179;SDS011;78;48.788;9.010;2023-05-14T05:19:37;29.60;;;13.50;;
179;SDS011;78;48.788;9.010;2023-05-14T05:22:03;29.53;;;13.50;;
179;SDS011;78;48.788;9.010;2023-05-14T05:24:29;31.20;;;14.57;;
179;SDS011;78;48.788;9.010;2023-05-14T05:26:55;29.87;;;13.10;;
179;SDS011;78;48.788;9.010;2023-05-14T05:29:21;31.70;;;14.87;;
179;SDS011;78;48.788;9.010;2023-05-14T05:31:48;29.20;;;13.93;;
179;SDS011;78;48.788;9.010;2023-05-14T05:34:14;30.43;;;13.20;;
179;SDS011;78;48.788;9.010;2023-05-14T05:36:40;29.87;;;13.30;;
179;SDS011;78;48.788;9.010;2023-05-14T05:39:06;27.53;;;12.03;;
179;SDS011;78;48.788;9.010;2023-05-14T05:41:32;31.77;;;14.37;;
179;SDS011;78;48.788;9.010;2023-05-14T05:43:58;31.27;;;14.10;;
179;SDS011;78;48.788;9.010;2023-05-14T05:46:24;29.17;;;12.97;;
179;SDS011;78;48.788;9.010;2023-05-14T05:48:50;29.90;;;13.50;;
179;SDS011;78;48.788;9.010;2023-05-14T05:51:17;34.23;;;13.83;;
179;SDS011;78;48.788;9.010;2023-05-14T05:53:43;32.73;;;14.10;;
179;SDS011;78;48.788;9.010;2023-05-14T05:56:09;30.13;;;13.23;;
179;SDS011;78;48.788;9.010;2023-05-14T05:58:35;31.47;;;14.60;;
179;SDS011;78;48.788;9.010;2023-05-14T06:01:02;28.93;;;12.77;;
179;SDS011;78;48.788;9.010;2023-05-14T06:03:28;28.50;;;12.90;;
179;SDS011;78;48.788;9.010;2023-05-14T06:05:54;31.60;;;12.83;;
179;SDS011;78;48.788;9.010;2023-05-14T06:08:20;31.30;;;14.20;;
179;SDS011;78;48.788;9.010;2023-05-14T06:10:46;33.90;;;12.90;;
179;SDS011;78;48.788;9.010;2023-05-14T06:13:12;30.70;;;13.70;;
179;SDS011;78;48.788;9.010;2023-05-14T06:15:38;31.27;;;13.33;;
179;SDS011;78;48.788;9.010;2023-05-14T06:18:04;27.70;;;12.73;;
179;SDS011;78;48.788;9.010;2023-05-14T06:20:29;28.60;;;13.03;;
179;SDS011;78;48.788;9.010;2023-05-14T06:22:55;30.83;;;14.53;;
179;SDS011;78;48.788;9.010;2023-05-14T06:25:21;27.80;;;12.37;;
179;SDS011;78;48.788;9.010;2023-05-14T06:27:47;29.60;;;12.70;;
179;SDS011;78;48.788;9.010;2023-05-14T06:30:13;29.27;;;13.00;;
179;SDS011;78;48.788;9.010;2023-05-14T06:32:40;29.60;;;12.80;;
179;SDS011;78;48.788;9.010;2023-05-14T06:35:06;30.07;;;13.13;;
179;SDS011;78;48.788;9.010;2023-05-14T06:37:32;35.37;;;13.30;;
179;SDS011;78;48.788;9.010;2023-05-14T06:39:58;29.60;;;14.17;;
179;SDS011;78;48.788;9.010;2023-05-14T06:42:24;31.90;;;13.93;;
179;SDS011;78;48.788;9.010;2023-05-14T06:44:50;26.90;;;12.27;;
179;SDS011;78;48.788;9.010;2023-05-14T06:47:16;29.30;;;12.60;;
179;SDS011;78;48.788;9.010;2023-05-14T06:49:42;26.67;;;12.57;;
179;SDS011;78;48.788;9.010;2023-05-14T06:52:08;29.80;;;14.33;;
179;SDS011;78;48.788;9.010;2023-05-14T06:54:34;27.53;;;12.40;;
179;SDS011;78;48.788;9.010;2023-05-14T06:57:00;27.80;;;12.43;;
179;SDS011;78;48.788;9.010;2023-05-14T06:59:26;29.20;;;12.47;;
179;SDS011;78;48.788;9.010;2023-05-14T07:01:52;28.03;;;12.37;;
179;SDS011;78;48.788;9.010;2023-05-14T07:04:18;31.67;;;12.67;;
179;SDS011;78;48.788;9.010;2023-05-14T07:06:44;33.23;;;13.27;;
179;SDS011;78;48.788;9.010;2023-05-14T07:09:10;27.17;;;12.37;;
179;SDS011;78;48.788;9.010;2023-05-14T07:11:38;26.57;;;11.50;;
179;SDS011;78;48.788;9.010;2023-05-14T07:14:04;27.70;;;13.10;;
179;SDS011;78;48.788;9.010;2023-05-14T07:16:30;28.73;;;12.40;;
179;SDS011;78;48.788;9.010;2023-05-14T07:18:56;26.93;;;12.00;;
179;SDS011;78;48.788;9.010;2023-05-14T07:21:23;26.67;;;12.23;;
179;SDS011;78;48.788;9.010;2023-05-14T07:23:50;26.97;;;12.13;;
179;SDS011;78;48.788;9.010;2023-05-14T07:26:16;27.50;;;11.50;;
179;SDS011;78;48.788;9.010;2023-05-14T07:28:42;31.60;;;12.67;;
179;SDS011;78;48.788;9.010;2023-05-14T07:31:08;26.53;;;11.30;;
179;SDS011;78;48.788;9.010;2023-05-14T07:33:34;25.80;;;10.80;;
179;SDS011;78;48.788;9.010;2023-05-14T07:36:00;26.87;;;11.90;;
179;SDS011;78;48.788;9.010;2023-05-14T07:38:26;30.10;;;13.03;;
179;SDS011;78;48.788;9.010;2023-05-14T07:40:52;28.00;;;12.10;;
179;SDS011;78;48.788;9.010;2023-05-14T07:43:18;28.70;;;13.07;;
179;SDS011;78;48.788;9.010;2023-05-14T07:45:44;28.50;;;12.30;;
179;SDS011;78;48.788;9.010;2023-05-14T07:48:10;28.50;;;12.60;;
179;SDS011;78;48.788;9.010;2023-05-14T07:50:36;29.00;;;12.47;;
179;SDS011;78;48.788;9.010;2023-05-14T07:53:02;37.97;;;17.50;;
179;SDS011;78;48.788;9.010;2023-05-14T07:55:28;27.17;;;12.40;;
179;SDS011;78;48.788;9.010;2023-05-14T07:57:54;27.13;;;12.03;;
179;SDS011;78;48.788;9.010;2023-05-14T08:00:20;27.50;;;12.23;;
179;SDS011;78;48.788;9.010;2023-05-14T08:02:46;27.27;;;11.60;;
179;SDS011;78;48.788;9.010;2023-05-14T08:05:13;27.73;;;12.07;;
179;SDS011;78;48.788;9.010;2023-05-14T08:07:39;26.73;;;11.93;;
179;SDS011;78;48.788;9.010;2023-05-14T08:10:06;27.20;;;11.60;;
179;SDS011;78;48.788;9.010;2023-05-14T08:12:32;26.20;;;12.07;;
179;SDS011;78;48.788;9.010;2023-05-14T08:14:58;26.63;;;11.50;;
179;SDS011;78;48.788;9.010;2023-05-14T08:17:24;26.70;;;12.30;;
179;SDS011;78;48.788;9.010;2023-05-14T08:19:50;26.67;;;11.73;;
179;SDS011;78;48.788;9.010;2023-05-14T08:22:16;25.50;;;11.27;;
179;SDS011;78;48.788;9.010;2023-05-14T08:24:42;27.53;;;11.60;;
179;SDS011;78;48.788;9.010;2023-05-14T08:27:08;27.33;;;12.90;;
179;SDS011;78;48.788;9.010;2023-05-14T08:29:34;28.50;;;12.70;;
179;SDS011;78;48.788;9.010;2023-05-14T08:32:00;28.77;;;12.60;;
179;SDS011;78;48.788;9.010;2023-05-14T08:34:27;28.67;;;12.83;;
179;SDS011;78;48.788;9.010;2023-05-14T08:36:53;26.03;;;11.50;;
179;SDS011;78;48.788;9.010;2023-05-14T08:39:19;28.50;;;13.60;;
179;SDS011;78;48.788;9.010;2023-05-14T08:41:45;27.70;;;12.50;;
179;SDS011;78;48.788;9.010;2023-05-14T08:44:11;27.97;;;12.90;;
179;SDS011;78;48.788;9.010;2023-05-14T08:46:38;27.90;;;13.13;;
179;SDS011;78;48.788;9.010;2023-05-14T08:49:09;26.13;;;11.87;;
179;SDS011;78;48.788;9.010;2023-05-14T08:51:37;29.73;;;13.47;;
179;SDS011;78;48.788;9.010;2023-05-14T08:54:04;28.37;;;12.50;;
179;SDS011;78;48.788;9.010;2023-05-14T08:56:31;32.20;;;12.50;;
179;SDS011;78;48.788;9.010;2023-05-14T08:58:57;30.13;;;13.03;;
179;SDS011;78;48.788;9.010;2023-05-14T09:01:24;33.20;;;13.77;;
179;SDS011;78;48.788;9.010;2023-05-14T09:03:50;29.47;;;13.40;;
179;SDS011;78;48.788;9.010;2023-05-14T09:06:17;30.00;;;13.57;;
179;SDS011;78;48.788;9.010;2023-05-14T09:08:43;32.83;;;15.00;;
179;SDS011;78;48.788;9.010;2023-05-14T09:11:10;29.30;;;13.90;;
179;SDS011;78;48.788;9.010;2023-05-14T09:13:37;31.13;;;14.87;;
179;SDS011;78;48.788;9.010;2023-05-14T09:16:03;31.10;;;13.60;;
179;SDS011;78;48.788;9.010;2023-05-14T09:18:29;28.87;;;13.33;;
179;SDS011;78;48.788;9.010;2023-05-14T09:20:56;28.53;;;12.87;;
179;SDS011;78;48.788;9.010;2023-05-14T09:23:24;29.23;;;13.67;;
179;SDS011;78;48.788;9.010;2023-05-14T09:25:50;29.37;;;13.03;;
179;SDS011;78;48.788;9.010;2023-05-14T09:28:17;26.10;;;12.10;;
179;SDS011;78;48.788;9.010;2023-05-14T09:30:51;30.03;;;12.37;;
179;SDS011;78;48.788;9.010;2023-05-14T09:33:27;27.30;;;12.70;;
179;SDS011;78;48.788;9.010;2023-05-14T09:36:00;25.60;;;12.13;;
179;SDS011;78;48.788;9.010;2023-05-14T09:38:32;28.73;;;13.17;;
179;SDS011;78;48.788;9.010;2023-05-14T09:40:58;27.07;;;12.53;;
179;SDS011;78;48.788;9.010;2023-05-14T09:43:24;25.07;;;11.37;;
179;SDS011;78;48.788;9.010;2023-05-14T09:45:51;25.70;;;11.00;;
179;SDS011;78;48.788;9.010;2023-05-14T09:48:17;25.43;;;12.03;;
179;SDS011;78;48.788;9.010;2023-05-14T09:50:43;26.87;;;12.40;;
179;SDS011;78;48.788;9.010;2023-05-14T09:53:10;24.57;;;10.77;;
179;SDS011;78;48.788;9.010;2023-05-14T09:55:36;24.37;;;10.90;;
179;SDS011;78;48.788;9.010;2023-05-14T09:58:02;26.33;;;12.00;;
179;SDS011;78;48.788;9.010;2023-05-14T10:00:30;26.40;;;11.73;;
179;SDS011;78;48.788;9.010;2023-05-14T10:02:56;24.80;;;11.07;;
179;SDS011;78;48.788;9.010;2023-05-14T10:05:23;26.13;;;11.83;;
179;SDS011;78;48.788;9.010;2023-05-14T10:07:50;30.00;;;11.17;;
179;SDS011;78;48.788;9.010;2023-05-14T10:10:18;28.73;;;12.00;;
179;SDS011;78;48.788;9.010;2023-05-14T10:12:51;24.40;;;10.47;;
179;SDS011;78;48.788;9.010;2023-05-14T10:15:36;25.83;;;10.73;;
179;SDS011;78;48.788;9.010;2023-05-14T10:18:06;23.70;;;10.40;;
179;SDS011;78;48.788;9.010;2023-05-14T10:20:33;33.63;;;11.20;;
179;SDS011;78;48.788;9.010;2023-05-14T10:23:00;26.00;;;11.03;;
179;SDS011;78;48.788;9.010;2023-05-14T10:25:25;24.57;;;11.87;;
179;SDS011;78;48.788;9.010;2023-05-14T10:27:52;27.07;;;12.30;;
179;SDS011;78;48.788;9.010;2023-05-14T10:30:19;29.93;;;10.80;;
179;SDS011;78;48.788;9.010;2023-05-14T10:32:46;26.10;;;11.10;;
179;SDS011;78;48.788;9.010;2023-05-14T10:35:16;24.67;;;11.20;;
179;SDS011;78;48.788;9.010;2023-05-14T10:37:44;25.17;;;11.33;;
179;SDS011;78;48.788;9.010;2023-05-14T10:40:10;25.70;;;11.00;;
179;SDS011;78;48.788;9.010;2023-05-14T10:42:37;24.70;;;11.00;;
179;SDS011;78;48.788;9.010;2023-05-14T10:45:11;25.37;;;11.50;;
179;SDS011;78;48.788;9.010;2023-05-14T10:47:39;24.40;;;10.80;;
179;SDS011;78;48.788;9.010;2023-05-14T10:50:07;24.70;;;10.93;;
179;SDS011;78;48.788;9.010;2023-05-14T10:52:34;26.33;;;10.50;;
179;SDS011;78;48.788;9.010;2023-05-14T10:55:02;25.47;;;9.50;;
179;SDS011;78;48.788;9.010;2023-05-14T10:57:33;23.07;;;8.80;;
179;SDS011;78;48.788;9.010;2023-05-14T11:00:00;22.23;;;9.10;;
179;SDS011;78;48.788;9.010;2023-05-14T11:05:04;24.87;;;9.70;;
179;SDS011;78;48.788;9.010;2023-05-14T11:10:05;24.17;;;10.30;;
179;SDS011;78;48.788;9.010;2023-05-14T11:12:32;25.67;;;10.73;;
179;SDS011;78;48.788;9.010;2023-05-14T11:14:59;23.53;;;11.07;;
179;SDS011;78;48.788;9.010;2023-05-14T11:17:26;24.77;;;10.80;;
179;SDS011;78;48.788;9.010;2023-05-14T11:19:53;26.20;;;11.70;;
179;SDS011;78;48.788;9.010;2023-05-14T11:22:19;26.80;;;11.57;;
179;SDS011;78;48.788;9.010;2023-05-14T11:24:45;27.93;;;10.40;;
179;SDS011;78;48.788;9.010;2023-05-14T11:27:11;21.43;;;8.63;;
179;SDS011;78;48.788;9.010;2023-05-14T11:29:37;25.90;;;10.90;;
179;SDS011;78;48.788;9.010;2023-05-14T11:32:04;27.30;;;10.87;;
179;SDS011;78;48.788;9.010;2023-05-14T11:34:31;20.30;;;7.17;;
179;SDS011;78;48.788;9.010;2023-05-14T11:37:01;21.57;;;6.83;;
179;SDS011;78;48.788;9.010;2023-05-14T11:39:27;50.37;;;29.33;;
179;SDS011;78;48.788;9.010;2023-05-14T11:41:53;37.37;;;18.43;;
179;SDS011;78;48.788;9.010;2023-05-14T11:44:19;17.77;;;6.00;;
179;SDS011;78;48.788;9.010;2023-05-14T11:46:57;20.83;;;7.70;;
179;SDS011;78;48.788;9.010;2023-05-14T11:49:26;19.93;;;6.73;;
179;SDS011;78;48.788;9.010;2023-05-14T11:51:59;20.63;;;6.93;;
179;SDS011;78;48.788;9.010;2023-05-14T11:54:26;19.83;;;7.73;;
179;SDS011;78;48.788;9.010;2023-05-14T11:56:52;25.13;;;8.50;;
179;SDS011;78;48.788;9.010;2023-05-14T11:59:19;22.03;;;9.23;;
179;SDS011;78;48.788;9.010;2023-05-14T12:01:45;22.60;;;7.43;;
179;SDS011;78;48.788;9.010;2023-05-14T12:04:12;20.10;;;6.80;;
179;SDS011;78;48.788;9.010;2023-05-14T12:06:38;20.60;;;7.40;;
179;SDS011;78;48.788;9.010;2023-05-14T12:09:04;19.77;;;6.90;;
179;SDS011;78;48.788;9.010;2023-05-14T12:11:31;19.00;;;5.93;;
179;SDS011;78;48.788;9.010;2023-05-14T12:13:58;19.83;;;6.20;;
179;SDS011;78;48.788;9.010;2023-05-14T12:16:28;18.27;;;5.87;;
179;SDS011;78;48.788;9.010;2023-05-14T12:18:59;16.80;;;5.00;;
179;SDS011;78;48.788;9.010;2023-05-14T12:21:28;17.67;;;5.43;;
179;SDS011;78;48.788;9.010;2023-05-14T12:23:55;20.33;;;5.47;;
179;SDS011;78;48.788;9.010;2023-05-14T12:26:21;16.20;;;4.87;;
179;SDS011;78;48.788;9.010;2023-05-14T12:28:47;17.00;;;5.40;;
179;SDS011;78;48.788;9.010;2023-05-14T12:31:14;17.87;;;5.30;;
179;SDS011;78;48.788;9.010;2023-05-14T12:33:40;17.00;;;5.70;;
179;SDS011;78;48.788;9.010;2023-05-14T12:36:06;18.30;;;5.80;;
179;SDS011;78;48.788;9.010;2023-05-14T12:38:32;17.37;;;5.30;;
179;SDS011;78;48.788;9.010;2023-05-14T12:40:58;20.00;;;6.00;;
179;SDS011;78;48.788;9.010;2023-05-14T12:43:24;19.40;;;6.13;;
179;SDS011;78;48.788;9.010;2023-05-14T12:45:55;20.00;;;7.63;;
179;SDS011;78;48.788;9.010;2023-05-14T12:48:21;19.73;;;6.70;;
179;SDS011;78;48.788;9.010;2023-05-14T12:50:47;21.97;;;8.17;;
179;SDS011;78;48.788;9.010;2023-05-14T12:53:13;22.43;;;7.83;;
179;SDS011;78;48.788;9.010;2023-05-14T12:55:40;20.33;;;7.30;;
179;SDS011;78;48.788;9.010;2023-05-14T12:58:06;25.87;;;8.50;;
179;SDS011;78;48.788;9.010;2023-05-14T13:00:32;21.70;;;7.73;;
179;SDS011;78;48.788;9.010;2023-05-14T13:02:58;27.53;;;8.90;;
179;SDS011;78;48.788;9.010;2023-05-14T13:05:24;22.00;;;8.60;;
179;SDS011;78;48.788;9.010;2023-05-14T13:07:51;22.70;;;9.20;;
179;SDS011;78;48.788;9.010;2023-05-14T13:10:17;22.40;;;9.13;;
179;SDS011;78;48.788;9.010;2023-05-14T13:12:43;22.73;;;8.73;;
179;SDS011;78;48.788;9.010;2023-05-14T13:15:09;21.77;;;7.70;;
179;SDS011;78;48.788;9.010;2023-05-14T13:17:35;23.30;;;8.73;;
179;SDS011;78;48.788;9.010;2023-05-14T13:20:01;20.30;;;7.70;;
179;SDS011;78;48.788;9.010;2023-05-14T13:22:28;23.23;;;7.60;;
179;SDS011;78;48.788;9.010;2023-05-14T13:24:54;20.90;;;7.50;;
179;SDS011;78;48.788;9.010;2023-05-14T13:27:20;22.00;;;7.50;;
179;SDS011;78;48.788;9.010;2023-05-14T13:29:46;22.33;;;7.60;;
179;SDS011;78;48.788;9.010;2023-05-14T13:32:12;22.17;;;8.03;;
179;SDS011;78;48.788;9.010;2023-05-14T13:34:38;19.70;;;7.33;;
179;SDS011;78;48.788;9.010;2023-05-14T13:37:04;19.83;;;7.27;;
179;SDS011;78;48.788;9.010;2023-05-14T13:39:30;24.13;;;8.20;;
179;SDS011;78;48.788;9.010;2023-05-14T13:41:56;20.20;;;7.80;;
179;SDS011;78;48.788;9.010;2023-05-14T13:44:22;21.10;;;7.30;;
179;SDS011;78;48.788;9.010;2023-05-14T13:46:48;19.93;;;6.83;;
179;SDS011;78;48.788;9.010;2023-05-14T13:49:14;20.77;;;6.30;;
179;SDS011;78;48.788;9.010;2023-05-14T13:51:40;19.50;;;5.90;;
179;SDS011;78;48.788;9.010;2023-05-14T13:54:06;29.93;;;5.10;;
179;SDS011;78;48.788;9.010;2023-05-14T13:56:32;17.60;;;5.70;;
179;SDS011;78;48.788;9.010;2023-05-14T13:58:58;19.07;;;5.67;;
179;SDS011;78;48.788;9.010;2023-05-14T14:01:24;18.57;;;5.63;;
179;SDS011;78;48.788;9.010;2023-05-14T14:03:50;19.60;;;6.50;;
179;SDS011;78;48.788;9.010;2023-05-14T14:06:16;19.30;;;6.43;;
179;SDS011;78;48.788;9.010;2023-05-14T14:08:42;19.67;;;6.90;;
179;SDS011;78;48.788;9.010;2023-05-14T14:11:08;18.93;;;5.90;;
179;SDS011;78;48.788;9.010;2023-05-14T14:13:35;20.10;;;5.97;;
179;SDS011;78;48.788;9.010;2023-05-14T14:16:01;18.00;;;5.97;;
179;SDS011;78;48.788;9.010;2023-05-14T14:18:28;20.33;;;6.30;;
179;SDS011;78;48.788;9.010;2023-05-14T14:20:54;18.67;;;6.20;;
179;SDS011;78;48.788;9.010;2023-05-14T14:23:20;18.37;;;6.13;;
179;SDS011;78;48.788;9.010;2023-05-14T14:25:46;17.93;;;5.90;;
179;SDS011;78;48.788;9.010;2023-05-14T14:28:12;21.30;;;6.33;;
179;SDS011;78;48.788;9.010;2023-05-14T14:30:38;17.93;;;5.67;;
179;SDS011;78;48.788;9.010;2023-05-14T14:33:04;20.57;;;4.63;;
179;SDS011;78;48.788;9.010;2023-05-14T14:35:30;17.87;;;5.30;;
179;SDS011;78;48.788;9.010;2023-05-14T14:37:57;16.43;;;4.90;;
179;SDS011;78;48.788;9.010;2023-05-14T14:40:23;17.07;;;4.73;;
179;SDS011;78;48.788;9.010;2023-05-14T14:42:50;16.37;;;4.60;;
179;SDS011;78;48.788;9.010;2023-05-14T14:45:16;17.40;;;4.30;;
179;SDS011;78;48.788;9.010;2023-05-14T14:47:43;21.10;;;4.87;;
179;SDS011;78;48.788;9.010;2023-05-14T14:50:10;20.20;;;4.00;;
179;SDS011;78;48.788;9.010;2023-05-14T14:52:36;15.70;;;4.27;;
179;SDS011;78;48.788;9.010;2023-05-14T14:55:03;14.60;;;3.77;;
179;SDS011;78;48.788;9.010;2023-05-14T14:57:29;15.37;;;4.07;;
179;SDS011;78;48.788;9.010;2023-05-14T14:59:55;15.17;;;3.70;;
179;SDS011;78;48.788;9.010;2023-05-14T15:02:21;15.93;;;3.87;;
179;SDS011;78;48.788;9.010;2023-05-14T15:04:47;15.10;;;4.00;;
179;SDS011;78;48.788;9.010;2023-05-14T15:07:13;16.47;;;3.63;;
179;SDS011;78;48.788;9.010;2023-05-14T15:09:41;15.07;;;4.00;;
179;SDS011;78;48.788;9.010;2023-05-14T15:12:07;16.10;;;3.57;;
179;SDS011;78;48.788;9.010;2023-05-14T15:14:34;16.20;;;3.77;;
179;SDS011;78;48.788;9.010;2023-05-14T15:17:00;15.93;;;3.73;;
179;SDS011;78;48.788;9.010;2023-05-14T15:19:27;14.53;;;3.70;;
179;SDS011;78;48.788;9.010;2023-05-14T15:21:54;17.97;;;3.43;;
179;SDS011;78;48.788;9.010;2023-05-14T15:24:20;14.60;;;3.30;;
179;SDS011;78;48.788;9.010;2023-05-14T15:26:47;15.07;;;3.60;;
179;SDS011;78;48.788;9.010;2023-05-14T15:29:13;13.73;;;3.00;;
179;SDS011;78;48.788;9.010;2023-05-14T15:31:39;16.20;;;3.50;;
179;SDS011;78;48.788;9.010;2023-05-14T15:34:05;17.20;;;3.30;;
179;SDS011;78;48.788;9.010;2023-05-14T15:36:31;15.57;;;3.40;;
179;SDS011;78;48.788;9.010;2023-05-14T15:38:57;14.77;;;3.20;;
179;SDS011;78;48.788;9.010;2023-05-14T15:41:24;13.67;;;2.87;;
179;SDS011;78;48.788;9.010;2023-05-14T15:43:52;13.80;;;3.23;;
179;SDS011;78;48.788;9.010;2023-05-14T15:46:18;13.83;;;3.20;;